QFA224 NZAA-YSSY
Flight info
| Callsign | QFA224 |
|---|---|
| Flight time | 3h 0m |
| Altitude | 34000 |
| Route | VELMO DCT 38S163E DCT PLUGA DCT RIKNI N774 MARLN |
| Aircraft | A321/M-SDE3FGHIRWY/LB1 |
Departure
| Time | 2026-05-04 05:47 |
|---|---|
| Airport | Auckland International Airport (NZAA) |
Arrival
| Time | 2026-05-04 08:47 |
|---|---|
| Airport | Sydney Kingsford Smith International Airport (YSSY) |
| Time | Latitude | Longitude | Altitude | Speed | Heading |
|---|---|---|---|---|---|
| 2026-05-04 05:31 | -37.00512 | 174.77787 | 27 ft | 0 kts | 341° |
| 2026-05-04 05:36 | -37.00517 | 174.77789 | 26 ft | 4 kts | 341° |
| 2026-05-04 05:36 | -37.00543 | 174.77800 | 28 ft | 4 kts | 341° |
| 2026-05-04 05:36 | -37.00568 | 174.77811 | 27 ft | 2 kts | 341° |
| 2026-05-04 05:36 | -37.00590 | 174.77818 | 28 ft | 4 kts | 0° |
| 2026-05-04 05:37 | -37.00615 | 174.77811 | 31 ft | 4 kts | 34° |
| 2026-05-04 05:37 | -37.00633 | 174.77788 | 29 ft | 4 kts | 60° |
| 2026-05-04 05:37 | -37.00643 | 174.77759 | 29 ft | 4 kts | 71° |
| 2026-05-04 05:38 | -37.00653 | 174.77722 | 26 ft | 0 kts | 71° |
| 2026-05-04 05:40 | -37.00644 | 174.77754 | 27 ft | 9 kts | 71° |
| 2026-05-04 05:41 | -37.00616 | 174.77857 | 28 ft | 13 kts | 71° |
| 2026-05-04 05:41 | -37.00596 | 174.77961 | 25 ft | 12 kts | 93° |
| 2026-05-04 05:41 | -37.00639 | 174.78033 | 28 ft | 10 kts | 153° |
| 2026-05-04 05:41 | -37.00704 | 174.78030 | 26 ft | 9 kts | 200° |
| 2026-05-04 05:42 | -37.00778 | 174.78009 | 27 ft | 15 kts | 175° |
| 2026-05-04 05:42 | -37.00879 | 174.78047 | 31 ft | 15 kts | 161° |
| 2026-05-04 05:42 | -37.00973 | 174.78087 | 27 ft | 14 kts | 161° |
| 2026-05-04 05:42 | -37.01041 | 174.78094 | 28 ft | 9 kts | 205° |
| 2026-05-04 05:43 | -37.01072 | 174.78037 | 28 ft | 10 kts | 249° |
| 2026-05-04 05:43 | -37.01098 | 174.77945 | 28 ft | 11 kts | 251° |
| 2026-05-04 05:43 | -37.01125 | 174.77846 | 30 ft | 15 kts | 251° |
| 2026-05-04 05:45 | -37.01456 | 174.77111 | 28 ft | 9 kts | 200° |
| 2026-05-04 05:45 | -37.01515 | 174.77095 | 28 ft | 8 kts | 191° |
| 2026-05-04 05:47 | -37.00553 | 174.80947 | 743 ft | 162 kts | 70° |
| 2026-05-04 05:47 | -37.00149 | 174.82259 | 1398 ft | 162 kts | 69° |
| 2026-05-04 05:47 | -36.99996 | 174.83659 | 1866 ft | 172 kts | 100° |
| 2026-05-04 05:48 | -37.00634 | 174.84970 | 2053 ft | 194 kts | 142° |
| 2026-05-04 05:48 | -37.01987 | 174.85397 | 2263 ft | 215 kts | 184° |
| 2026-05-04 05:48 | -37.03473 | 174.85015 | 2690 ft | 220 kts | 192° |
| 2026-05-04 05:48 | -37.04966 | 174.84502 | 3157 ft | 224 kts | 194° |
| 2026-05-04 05:49 | -37.06471 | 174.83956 | 3726 ft | 226 kts | 195° |
| 2026-05-04 05:49 | -37.08002 | 174.83406 | 4011 ft | 230 kts | 194° |
| 2026-05-04 05:49 | -37.09537 | 174.82863 | 4010 ft | 228 kts | 194° |
| 2026-05-04 05:49 | -37.10571 | 174.82503 | 4011 ft | 228 kts | 194° |
| 2026-05-04 05:51 | -37.17208 | 174.70503 | 6268 ft | 286 kts | 248° |
| 2026-05-04 05:51 | -37.17937 | 174.68162 | 6924 ft | 291 kts | 249° |
| 2026-05-04 05:52 | -37.18675 | 174.65787 | 7546 ft | 294 kts | 248° |
| 2026-05-04 05:52 | -37.19423 | 174.63385 | 8214 ft | 297 kts | 248° |
| 2026-05-04 05:52 | -37.20177 | 174.60963 | 8888 ft | 299 kts | 248° |
| 2026-05-04 05:52 | -37.20938 | 174.58524 | 9550 ft | 301 kts | 249° |
| 2026-05-04 05:53 | -37.21701 | 174.56064 | 10202 ft | 305 kts | 249° |
| 2026-05-04 05:54 | -37.28173 | 174.35119 | 12084 ft | 401 kts | 249° |
| 2026-05-04 05:55 | -37.29182 | 174.31841 | 12633 ft | 404 kts | 249° |
| 2026-05-04 05:55 | -37.30199 | 174.28526 | 13189 ft | 407 kts | 249° |
| 2026-05-04 05:55 | -37.31209 | 174.25234 | 13698 ft | 410 kts | 249° |
| 2026-05-04 05:55 | -37.32235 | 174.21887 | 14226 ft | 412 kts | 249° |
| 2026-05-04 05:56 | -37.33267 | 174.18512 | 14692 ft | 415 kts | 250° |
| 2026-05-04 05:56 | -37.34304 | 174.15115 | 15167 ft | 417 kts | 250° |
| 2026-05-04 05:56 | -37.35344 | 174.11708 | 15632 ft | 419 kts | 250° |
| 2026-05-04 05:56 | -37.36392 | 174.08283 | 16083 ft | 421 kts | 250° |
| 2026-05-04 05:57 | -37.37449 | 174.04827 | 16531 ft | 424 kts | 250° |
| 2026-05-04 05:57 | -37.38508 | 174.01357 | 16974 ft | 426 kts | 250° |
| 2026-05-04 05:57 | -37.39571 | 173.97862 | 17418 ft | 429 kts | 250° |
| 2026-05-04 05:57 | -37.40640 | 173.94341 | 17845 ft | 432 kts | 250° |
| 2026-05-04 05:58 | -37.41714 | 173.90802 | 18280 ft | 434 kts | 250° |
| 2026-05-04 05:58 | -37.42797 | 173.87234 | 18704 ft | 437 kts | 250° |
| 2026-05-04 05:58 | -37.43880 | 173.83652 | 19092 ft | 439 kts | 250° |
| 2026-05-04 05:58 | -37.44966 | 173.80044 | 19475 ft | 441 kts | 250° |
| 2026-05-04 05:59 | -37.46055 | 173.76421 | 19863 ft | 444 kts | 250° |
| 2026-05-04 05:59 | -37.47149 | 173.72780 | 20247 ft | 446 kts | 250° |
| 2026-05-04 05:59 | -37.48247 | 173.69126 | 20625 ft | 448 kts | 250° |
| 2026-05-04 05:59 | -37.49355 | 173.65448 | 20999 ft | 450 kts | 250° |
| 2026-05-04 06:00 | -37.50468 | 173.61759 | 21364 ft | 452 kts | 250° |
| 2026-05-04 06:00 | -37.51583 | 173.58049 | 21721 ft | 454 kts | 250° |
| 2026-05-04 06:00 | -37.52686 | 173.54369 | 22074 ft | 456 kts | 250° |
| 2026-05-04 06:00 | -37.53805 | 173.50619 | 22429 ft | 458 kts | 250° |
| 2026-05-04 06:01 | -37.54930 | 173.46848 | 22755 ft | 461 kts | 250° |
| 2026-05-04 06:01 | -37.56059 | 173.43059 | 23107 ft | 463 kts | 250° |
| 2026-05-04 06:03 | -37.64062 | 173.16046 | 25226 ft | 476 kts | 250° |
| 2026-05-04 06:03 | -37.65219 | 173.12128 | 25489 ft | 478 kts | 250° |
| 2026-05-04 06:05 | -37.73307 | 172.84497 | 27732 ft | 478 kts | 250° |
| 2026-05-04 06:05 | -37.75596 | 172.76621 | 28404 ft | 477 kts | 250° |
| 2026-05-04 06:05 | -37.76738 | 172.72691 | 28745 ft | 476 kts | 250° |
| 2026-05-04 06:06 | -37.77880 | 172.68765 | 29093 ft | 475 kts | 250° |
| 2026-05-04 06:06 | -37.79017 | 172.64850 | 29432 ft | 474 kts | 250° |
| 2026-05-04 06:06 | -37.80152 | 172.60938 | 29775 ft | 473 kts | 250° |
| 2026-05-04 06:06 | -37.81284 | 172.57034 | 30111 ft | 472 kts | 250° |
| 2026-05-04 06:07 | -37.82410 | 172.53132 | 30442 ft | 472 kts | 250° |
| 2026-05-04 06:07 | -37.83530 | 172.49237 | 30742 ft | 471 kts | 250° |
| 2026-05-04 06:07 | -37.84645 | 172.45343 | 31030 ft | 470 kts | 250° |
| 2026-05-04 06:07 | -37.85759 | 172.41452 | 31304 ft | 469 kts | 250° |
| 2026-05-04 06:08 | -37.86872 | 172.37569 | 31580 ft | 469 kts | 250° |
| 2026-05-04 06:08 | -37.87984 | 172.33693 | 31855 ft | 468 kts | 250° |
| 2026-05-04 06:08 | -37.89092 | 172.29826 | 32133 ft | 467 kts | 250° |
| 2026-05-04 06:08 | -37.90199 | 172.25966 | 32419 ft | 466 kts | 250° |
| 2026-05-04 06:09 | -37.91301 | 172.22107 | 32698 ft | 465 kts | 250° |
| 2026-05-04 06:09 | -37.92395 | 172.18255 | 32981 ft | 464 kts | 250° |
| 2026-05-04 06:11 | -37.99986 | 171.91433 | 34550 ft | 460 kts | 249° |
| 2026-05-04 06:13 | -38.08527 | 171.60930 | 34552 ft | 459 kts | 249° |
| 2026-05-04 06:14 | -38.15933 | 171.34129 | 34558 ft | 459 kts | 249° |
| 2026-05-04 06:15 | -38.18050 | 171.26457 | 34554 ft | 459 kts | 249° |
| 2026-05-04 06:15 | -38.20154 | 171.18788 | 34557 ft | 459 kts | 249° |
| 2026-05-04 06:16 | -38.22248 | 171.11122 | 34561 ft | 458 kts | 249° |
| 2026-05-04 06:16 | -38.24338 | 171.03465 | 34560 ft | 458 kts | 249° |
| 2026-05-04 06:17 | -38.26386 | 170.95797 | 34556 ft | 458 kts | 253° |
| 2026-05-04 06:17 | -38.27169 | 170.87803 | 34548 ft | 461 kts | 269° |
| 2026-05-04 06:18 | -38.27150 | 170.79637 | 34523 ft | 463 kts | 269° |
| 2026-05-04 06:20 | -38.27043 | 170.46684 | 34532 ft | 466 kts | 269° |
| 2026-05-04 06:21 | -38.26938 | 170.26059 | 34541 ft | 466 kts | 269° |
| 2026-05-04 06:22 | -38.26883 | 170.17814 | 34541 ft | 466 kts | 269° |
| 2026-05-04 06:25 | -38.26344 | 169.60346 | 34529 ft | 464 kts | 269° |
| 2026-05-04 06:26 | -38.26247 | 169.52147 | 34533 ft | 464 kts | 269° |
| 2026-05-04 06:26 | -38.26143 | 169.43936 | 34534 ft | 464 kts | 269° |
| 2026-05-04 06:27 | -38.25853 | 169.23405 | 34525 ft | 464 kts | 269° |
| 2026-05-04 06:28 | -38.25723 | 169.15190 | 34521 ft | 464 kts | 269° |
| 2026-05-04 06:28 | -38.25592 | 169.06979 | 34512 ft | 464 kts | 269° |
| 2026-05-04 06:29 | -38.25457 | 168.98771 | 34518 ft | 464 kts | 269° |
| 2026-05-04 06:29 | -38.25315 | 168.90562 | 34514 ft | 464 kts | 269° |
| 2026-05-04 06:30 | -38.25166 | 168.82355 | 34514 ft | 464 kts | 269° |
| 2026-05-04 06:30 | -38.25013 | 168.74205 | 34517 ft | 464 kts | 269° |
| 2026-05-04 06:31 | -38.24854 | 168.65994 | 34503 ft | 464 kts | 269° |
| 2026-05-04 06:31 | -38.24712 | 168.59128 | 34505 ft | 463 kts | 269° |
| 2026-05-04 06:33 | -38.24006 | 168.26394 | 34512 ft | 463 kts | 269° |
| 2026-05-04 06:34 | -38.23812 | 168.18216 | 34511 ft | 462 kts | 270° |
| 2026-05-04 06:34 | -38.23617 | 168.10048 | 34508 ft | 462 kts | 269° |
| 2026-05-04 06:36 | -38.22771 | 167.77457 | 34510 ft | 459 kts | 270° |
| 2026-05-04 06:37 | -38.22540 | 167.69350 | 34510 ft | 458 kts | 270° |
| 2026-05-04 06:37 | -38.22309 | 167.61251 | 34506 ft | 458 kts | 270° |
| 2026-05-04 06:38 | -38.22079 | 167.53165 | 34506 ft | 457 kts | 270° |
| 2026-05-04 06:40 | -38.21085 | 167.20946 | 34493 ft | 456 kts | 271° |
| 2026-05-04 06:40 | -38.20827 | 167.12905 | 34503 ft | 455 kts | 271° |
| 2026-05-04 06:41 | -38.20561 | 167.04862 | 34501 ft | 454 kts | 271° |
| 2026-05-04 06:41 | -38.20289 | 166.96842 | 34498 ft | 454 kts | 270° |
| 2026-05-04 06:42 | -38.20012 | 166.88819 | 34498 ft | 454 kts | 271° |
| 2026-05-04 06:44 | -38.18855 | 166.56908 | 34494 ft | 452 kts | 271° |
| 2026-05-04 06:44 | -38.18550 | 166.48928 | 34482 ft | 451 kts | 271° |
| 2026-05-04 06:45 | -38.18242 | 166.40966 | 34493 ft | 451 kts | 271° |
| 2026-05-04 06:45 | -38.17933 | 166.33007 | 34485 ft | 451 kts | 271° |
| 2026-05-04 06:46 | -38.17613 | 166.25053 | 34487 ft | 450 kts | 271° |
| 2026-05-04 06:46 | -38.17293 | 166.17111 | 34479 ft | 450 kts | 271° |
| 2026-05-04 06:48 | -38.15950 | 165.85462 | 34474 ft | 448 kts | 271° |
| 2026-05-04 06:50 | -38.14532 | 165.53921 | 34469 ft | 446 kts | 272° |
| 2026-05-04 06:51 | -38.14158 | 165.46058 | 34451 ft | 446 kts | 272° |
| 2026-05-04 06:51 | -38.13791 | 165.38189 | 34455 ft | 445 kts | 272° |
| 2026-05-04 06:52 | -38.13415 | 165.30339 | 34448 ft | 445 kts | 272° |
| 2026-05-04 06:52 | -38.13031 | 165.22540 | 34445 ft | 445 kts | 272° |
| 2026-05-04 06:53 | -38.12645 | 165.14684 | 34450 ft | 444 kts | 272° |
| 2026-05-04 06:53 | -38.12256 | 165.06851 | 34437 ft | 445 kts | 273° |
| 2026-05-04 06:54 | -38.11862 | 164.99007 | 34436 ft | 445 kts | 273° |
| 2026-05-04 06:54 | -38.11452 | 164.91179 | 34447 ft | 444 kts | 273° |
| 2026-05-04 06:55 | -38.11038 | 164.83348 | 34437 ft | 445 kts | 273° |
| 2026-05-04 06:55 | -38.10628 | 164.75512 | 34436 ft | 445 kts | 273° |
| 2026-05-04 06:57 | -38.08934 | 164.44199 | 34437 ft | 444 kts | 274° |
| 2026-05-04 06:58 | -38.08490 | 164.36377 | 34426 ft | 445 kts | 274° |
| 2026-05-04 06:58 | -38.08040 | 164.28541 | 34418 ft | 445 kts | 275° |
| 2026-05-04 06:59 | -38.07595 | 164.20697 | 34420 ft | 445 kts | 274° |
| 2026-05-04 06:59 | -38.07147 | 164.12862 | 34407 ft | 446 kts | 275° |
| 2026-05-04 07:01 | -38.05265 | 163.81528 | 34404 ft | 447 kts | 275° |
| 2026-05-04 07:02 | -38.04780 | 163.73670 | 34402 ft | 447 kts | 275° |
| 2026-05-04 07:02 | -38.04288 | 163.65808 | 34398 ft | 447 kts | 275° |
| 2026-05-04 07:03 | -38.03798 | 163.57937 | 34399 ft | 447 kts | 275° |
| 2026-05-04 07:03 | -38.03299 | 163.50075 | 34401 ft | 447 kts | 275° |
| 2026-05-04 07:04 | -38.02790 | 163.42220 | 34398 ft | 447 kts | 275° |
| 2026-05-04 07:04 | -38.02283 | 163.34361 | 34394 ft | 447 kts | 275° |
| 2026-05-04 07:05 | -38.01776 | 163.26498 | 34399 ft | 447 kts | 275° |
| 2026-05-04 07:05 | -38.01260 | 163.18656 | 34394 ft | 446 kts | 275° |
| 2026-05-04 07:06 | -38.00463 | 163.06902 | 34390 ft | 446 kts | 275° |
| 2026-05-04 07:07 | -37.99728 | 162.99106 | 34388 ft | 445 kts | 284° |
| 2026-05-04 07:09 | -37.92437 | 162.69277 | 34380 ft | 443 kts | 287° |
| 2026-05-04 07:09 | -37.90590 | 162.61835 | 34362 ft | 443 kts | 287° |
| 2026-05-04 07:10 | -37.88728 | 162.54402 | 34368 ft | 443 kts | 287° |
| 2026-05-04 07:12 | -37.81280 | 162.24655 | 34361 ft | 443 kts | 288° |
| 2026-05-04 07:12 | -37.79395 | 162.17245 | 34362 ft | 442 kts | 288° |
| 2026-05-04 07:13 | -37.77525 | 162.09887 | 34351 ft | 442 kts | 288° |
| 2026-05-04 07:13 | -37.75656 | 162.02492 | 34349 ft | 442 kts | 287° |
| 2026-05-04 07:14 | -37.70943 | 161.84039 | 34335 ft | 441 kts | 288° |
| 2026-05-04 07:15 | -37.69052 | 161.76668 | 34340 ft | 441 kts | 288° |
| 2026-05-04 07:15 | -37.67473 | 161.70532 | 34334 ft | 441 kts | 288° |
| 2026-05-04 07:16 | -37.65568 | 161.63172 | 34335 ft | 441 kts | 288° |
| 2026-05-04 07:16 | -37.63660 | 161.55812 | 34330 ft | 441 kts | 288° |
| 2026-05-04 07:17 | -37.61751 | 161.48454 | 34338 ft | 441 kts | 288° |
| 2026-05-04 07:17 | -37.59840 | 161.41110 | 34337 ft | 441 kts | 288° |
| 2026-05-04 07:18 | -37.57922 | 161.33771 | 34334 ft | 440 kts | 288° |
| 2026-05-04 07:18 | -37.55999 | 161.26442 | 34326 ft | 440 kts | 288° |
| 2026-05-04 07:19 | -37.54075 | 161.19112 | 34334 ft | 440 kts | 288° |
| 2026-05-04 07:19 | -37.52148 | 161.11797 | 34332 ft | 440 kts | 288° |
| 2026-05-04 07:20 | -37.50219 | 161.04490 | 34333 ft | 440 kts | 288° |
| 2026-05-04 07:20 | -37.48284 | 160.97184 | 34325 ft | 439 kts | 288° |
| 2026-05-04 07:22 | -37.40505 | 160.68037 | 34303 ft | 440 kts | 289° |
| 2026-05-04 07:23 | -37.38536 | 160.60741 | 34304 ft | 440 kts | 289° |
| 2026-05-04 07:23 | -37.36568 | 160.53448 | 34314 ft | 440 kts | 290° |
| 2026-05-04 07:24 | -37.34598 | 160.46156 | 34285 ft | 441 kts | 290° |
| 2026-05-04 07:24 | -37.32636 | 160.38897 | 34284 ft | 442 kts | 290° |
| 2026-05-04 07:26 | -37.24647 | 160.09630 | 34276 ft | 443 kts | 290° |
| 2026-05-04 07:27 | -37.22637 | 160.02324 | 34279 ft | 443 kts | 290° |
| 2026-05-04 07:27 | -37.20621 | 159.95017 | 34285 ft | 442 kts | 290° |
| 2026-05-04 07:28 | -37.18609 | 159.87724 | 34266 ft | 443 kts | 290° |
| 2026-05-04 07:28 | -37.16590 | 159.80415 | 34268 ft | 444 kts | 291° |
| 2026-05-04 07:29 | -37.14555 | 159.73088 | 34240 ft | 446 kts | 290° |
| 2026-05-04 07:29 | -37.12502 | 159.65743 | 34248 ft | 447 kts | 291° |
| 2026-05-04 07:30 | -37.10447 | 159.58401 | 34257 ft | 447 kts | 290° |
| 2026-05-04 07:30 | -37.08398 | 159.51045 | 34268 ft | 447 kts | 291° |
| 2026-05-04 07:31 | -37.06356 | 159.43759 | 34276 ft | 446 kts | 290° |
| 2026-05-04 07:33 | -36.98117 | 159.14679 | 34280 ft | 440 kts | 290° |
| 2026-05-04 07:33 | -36.96062 | 159.07480 | 34273 ft | 439 kts | 290° |
| 2026-05-04 07:34 | -36.94015 | 159.00305 | 34272 ft | 438 kts | 290° |
| 2026-05-04 07:34 | -36.91969 | 158.93142 | 34266 ft | 437 kts | 290° |
| 2026-05-04 07:35 | -36.89919 | 158.86003 | 34257 ft | 436 kts | 290° |
| 2026-05-04 07:35 | -36.87871 | 158.78885 | 34257 ft | 435 kts | 290° |
| 2026-05-04 07:36 | -36.85838 | 158.71822 | 34251 ft | 435 kts | 290° |
| 2026-05-04 07:38 | -36.77601 | 158.43461 | 34231 ft | 434 kts | 290° |
| 2026-05-04 07:38 | -36.75540 | 158.36425 | 34235 ft | 434 kts | 290° |
| 2026-05-04 07:39 | -36.73472 | 158.29363 | 34231 ft | 434 kts | 290° |
| 2026-05-04 07:39 | -36.71399 | 158.22294 | 34231 ft | 433 kts | 290° |
| 2026-05-04 07:40 | -36.69328 | 158.15245 | 34230 ft | 432 kts | 290° |
| 2026-05-04 07:40 | -36.67258 | 158.08228 | 34229 ft | 431 kts | 290° |
| 2026-05-04 07:41 | -36.65181 | 158.01230 | 34226 ft | 431 kts | 290° |
| 2026-05-04 07:41 | -36.63103 | 157.94238 | 34225 ft | 430 kts | 290° |
| 2026-05-04 07:42 | -36.61023 | 157.87254 | 34218 ft | 430 kts | 290° |
| 2026-05-04 07:42 | -36.58945 | 157.80273 | 34216 ft | 430 kts | 290° |
| 2026-05-04 07:43 | -36.56855 | 157.73292 | 34216 ft | 430 kts | 290° |
| 2026-05-04 07:43 | -36.54765 | 157.66324 | 34215 ft | 430 kts | 290° |
| 2026-05-04 07:44 | -36.52677 | 157.59365 | 34201 ft | 429 kts | 290° |
| 2026-05-04 07:44 | -36.50588 | 157.52410 | 34201 ft | 429 kts | 290° |
| 2026-05-04 07:45 | -36.48494 | 157.45466 | 34200 ft | 429 kts | 290° |
| 2026-05-04 07:45 | -36.46383 | 157.38527 | 34197 ft | 429 kts | 290° |
| 2026-05-04 07:46 | -36.44281 | 157.31600 | 34195 ft | 429 kts | 290° |
| 2026-05-04 07:46 | -36.42178 | 157.24678 | 34188 ft | 428 kts | 290° |
| 2026-05-04 07:47 | -36.40067 | 157.17763 | 34185 ft | 428 kts | 290° |
| 2026-05-04 07:49 | -36.31631 | 156.90251 | 34183 ft | 426 kts | 290° |
| 2026-05-04 07:49 | -36.29511 | 156.83397 | 34191 ft | 425 kts | 290° |
| 2026-05-04 07:50 | -36.27386 | 156.76552 | 34185 ft | 426 kts | 290° |
| 2026-05-04 07:50 | -36.25261 | 156.69704 | 34181 ft | 425 kts | 290° |
| 2026-05-04 07:51 | -36.23137 | 156.62862 | 34173 ft | 425 kts | 290° |
| 2026-05-04 07:51 | -36.21026 | 156.56070 | 34178 ft | 425 kts | 290° |
| 2026-05-04 07:52 | -36.18893 | 156.49242 | 34161 ft | 425 kts | 290° |
| 2026-05-04 07:52 | -36.16761 | 156.42432 | 34156 ft | 424 kts | 290° |
| 2026-05-04 07:54 | -36.08193 | 156.15208 | 34171 ft | 423 kts | 290° |
| 2026-05-04 07:55 | -36.06044 | 156.08445 | 34164 ft | 422 kts | 290° |
| 2026-05-04 07:55 | -36.03901 | 156.01684 | 34159 ft | 422 kts | 290° |
| 2026-05-04 07:56 | -36.01767 | 155.94972 | 34150 ft | 422 kts | 291° |
| 2026-05-04 07:56 | -35.99620 | 155.88233 | 34164 ft | 421 kts | 291° |
| 2026-05-04 07:57 | -35.97467 | 155.81510 | 34150 ft | 421 kts | 291° |
| 2026-05-04 07:57 | -35.95310 | 155.74794 | 34150 ft | 420 kts | 291° |
| 2026-05-04 07:58 | -35.93525 | 155.69230 | 34143 ft | 419 kts | 291° |
| 2026-05-04 07:58 | -35.91375 | 155.62543 | 34140 ft | 419 kts | 291° |
| 2026-05-04 07:59 | -35.88869 | 155.54777 | 34135 ft | 419 kts | 291° |
| 2026-05-04 07:59 | -35.87065 | 155.49188 | 34130 ft | 419 kts | 291° |
| 2026-05-04 08:00 | -35.84908 | 155.42513 | 34121 ft | 418 kts | 291° |
| 2026-05-04 08:02 | -35.76248 | 155.15946 | 34106 ft | 419 kts | 291° |
| 2026-05-04 08:02 | -35.74066 | 155.09290 | 34106 ft | 419 kts | 291° |
| 2026-05-04 08:03 | -35.71883 | 155.02635 | 34106 ft | 419 kts | 291° |
| 2026-05-04 08:03 | -35.69699 | 154.95987 | 34105 ft | 419 kts | 291° |
| 2026-05-04 08:04 | -35.67512 | 154.89336 | 34108 ft | 419 kts | 292° |
| 2026-05-04 08:04 | -35.65319 | 154.82694 | 34097 ft | 419 kts | 292° |
| 2026-05-04 08:05 | -35.63116 | 154.76062 | 34096 ft | 419 kts | 292° |
| 2026-05-04 08:05 | -35.60796 | 154.69547 | 34090 ft | 419 kts | 299° |
| 2026-05-04 08:06 | -35.57234 | 154.63862 | 34092 ft | 422 kts | 309° |
| 2026-05-04 08:06 | -35.53404 | 154.58388 | 34088 ft | 423 kts | 309° |
| 2026-05-04 08:08 | -35.38066 | 154.36498 | 34089 ft | 423 kts | 309° |
| 2026-05-04 08:11 | -35.20740 | 154.11942 | 34088 ft | 423 kts | 309° |
| 2026-05-04 08:11 | -35.14954 | 154.03802 | 34083 ft | 422 kts | 309° |
| 2026-05-04 08:12 | -35.11114 | 153.98382 | 34089 ft | 422 kts | 309° |
| 2026-05-04 08:12 | -35.07298 | 153.93013 | 34087 ft | 421 kts | 309° |
| 2026-05-04 08:13 | -35.03448 | 153.87619 | 34088 ft | 421 kts | 309° |
| 2026-05-04 08:13 | -34.99603 | 153.82225 | 34080 ft | 421 kts | 309° |
| 2026-05-04 08:14 | -34.95757 | 153.76844 | 34072 ft | 420 kts | 308° |
| 2026-05-04 08:16 | -34.80450 | 153.55509 | 34071 ft | 417 kts | 308° |
| 2026-05-04 08:16 | -34.76631 | 153.50200 | 34068 ft | 417 kts | 308° |
| 2026-05-04 08:17 | -34.72809 | 153.44903 | 34060 ft | 417 kts | 308° |
| 2026-05-04 08:17 | -34.69005 | 153.39646 | 34069 ft | 416 kts | 309° |
| 2026-05-04 08:19 | -34.53852 | 153.18767 | 34084 ft | 406 kts | 308° |
| 2026-05-04 08:20 | -34.50121 | 153.13635 | 34084 ft | 405 kts | 308° |
| 2026-05-04 08:20 | -34.46401 | 153.08520 | 34086 ft | 403 kts | 308° |
| 2026-05-04 08:21 | -34.42686 | 153.03426 | 34084 ft | 403 kts | 308° |
| 2026-05-04 08:21 | -34.38972 | 152.98355 | 34069 ft | 402 kts | 308° |
| 2026-05-04 08:22 | -34.35260 | 152.93290 | 34074 ft | 402 kts | 308° |
| 2026-05-04 08:24 | -34.22360 | 152.75713 | 31791 ft | 401 kts | 309° |
| 2026-05-04 08:24 | -34.20502 | 152.73193 | 31024 ft | 401 kts | 310° |
| 2026-05-04 08:24 | -34.18638 | 152.70674 | 30245 ft | 403 kts | 310° |
| 2026-05-04 08:24 | -34.16763 | 152.68141 | 29292 ft | 407 kts | 310° |
| 2026-05-04 08:25 | -34.14870 | 152.65584 | 28367 ft | 409 kts | 310° |
| 2026-05-04 08:25 | -34.12970 | 152.63019 | 27513 ft | 410 kts | 310° |
| 2026-05-04 08:25 | -34.11101 | 152.60453 | 26552 ft | 414 kts | 308° |
| 2026-05-04 08:25 | -34.09493 | 152.57559 | 25517 ft | 419 kts | 298° |
| 2026-05-04 08:26 | -34.08332 | 152.54317 | 24465 ft | 425 kts | 289° |
| 2026-05-04 08:27 | -34.05663 | 152.29463 | 18532 ft | 419 kts | 279° |
| 2026-05-04 08:28 | -34.05328 | 152.25986 | 17753 ft | 416 kts | 279° |
| 2026-05-04 08:28 | -34.04995 | 152.22536 | 17051 ft | 411 kts | 279° |
| 2026-05-04 08:28 | -34.04663 | 152.19135 | 16333 ft | 407 kts | 279° |
| 2026-05-04 08:28 | -34.04336 | 152.15765 | 15668 ft | 402 kts | 279° |
| 2026-05-04 08:29 | -34.04014 | 152.12434 | 15035 ft | 397 kts | 279° |
| 2026-05-04 08:29 | -34.03697 | 152.09146 | 14410 ft | 393 kts | 279° |
| 2026-05-04 08:29 | -34.03385 | 152.05886 | 13832 ft | 388 kts | 279° |
| 2026-05-04 08:31 | -34.01264 | 151.84787 | 11094 ft | 323 kts | 280° |
| 2026-05-04 08:33 | -33.99546 | 151.68061 | 10238 ft | 273 kts | 280° |
| 2026-05-04 08:33 | -33.99309 | 151.65793 | 10123 ft | 272 kts | 281° |
| 2026-05-04 08:35 | -33.99257 | 151.50340 | 8098 ft | 282 kts | 230° |
| 2026-05-04 08:35 | -34.00944 | 151.49065 | 7855 ft | 294 kts | 202° |
| 2026-05-04 08:35 | -34.02958 | 151.48521 | 7632 ft | 298 kts | 194° |
| 2026-05-04 08:35 | -34.05008 | 151.48127 | 7471 ft | 298 kts | 193° |
| 2026-05-04 08:37 | -34.17289 | 151.45923 | 6678 ft | 296 kts | 193° |
| 2026-05-04 08:37 | -34.19323 | 151.45561 | 6494 ft | 295 kts | 193° |
| 2026-05-04 08:37 | -34.21317 | 151.45203 | 6292 ft | 292 kts | 193° |
| 2026-05-04 08:38 | -34.23350 | 151.44837 | 6105 ft | 291 kts | 193° |
| 2026-05-04 08:38 | -34.25306 | 151.44398 | 5981 ft | 286 kts | 205° |
| 2026-05-04 08:38 | -34.26941 | 151.43176 | 5957 ft | 274 kts | 231° |
| 2026-05-04 08:40 | -34.32218 | 151.30206 | 4229 ft | 240 kts | 311° |
| 2026-05-04 08:40 | -34.30995 | 151.28835 | 3907 ft | 239 kts | 322° |
| 2026-05-04 08:40 | -34.29548 | 151.27862 | 3579 ft | 240 kts | 343° |
| 2026-05-04 08:41 | -34.27915 | 151.27416 | 3384 ft | 240 kts | 347° |
| 2026-05-04 08:41 | -34.26297 | 151.26999 | 3247 ft | 242 kts | 346° |
| 2026-05-04 08:41 | -34.24633 | 151.26565 | 3098 ft | 242 kts | 346° |
| 2026-05-04 08:41 | -34.23009 | 151.26140 | 2928 ft | 241 kts | 347° |
| 2026-05-04 08:42 | -34.21373 | 151.25712 | 2743 ft | 239 kts | 346° |
| 2026-05-04 08:42 | -34.19750 | 151.25288 | 2648 ft | 239 kts | 347° |
| 2026-05-04 08:42 | -34.18122 | 151.24863 | 2546 ft | 239 kts | 347° |
| 2026-05-04 08:42 | -34.16499 | 151.24439 | 2434 ft | 236 kts | 347° |
| 2026-05-04 08:43 | -34.14933 | 151.24031 | 2306 ft | 225 kts | 347° |
| 2026-05-04 08:43 | -34.13434 | 151.23640 | 2178 ft | 215 kts | 347° |
| 2026-05-04 08:43 | -34.12004 | 151.23267 | 2075 ft | 205 kts | 348° |
| 2026-05-04 08:43 | -34.10641 | 151.22911 | 2016 ft | 193 kts | 349° |
| 2026-05-04 08:44 | -34.09383 | 151.22583 | 2015 ft | 179 kts | 347° |
| 2026-05-04 08:44 | -34.08192 | 151.22273 | 2021 ft | 172 kts | 349° |
| 2026-05-04 08:46 | -34.00477 | 151.20263 | 742 ft | 141 kts | 353° |
| 2026-05-04 08:46 | -33.99526 | 151.20017 | 555 ft | 141 kts | 352° |
| 2026-05-04 08:46 | -33.98557 | 151.19765 | 358 ft | 144 kts | 351° |
| 2026-05-04 08:46 | -33.97918 | 151.19600 | 237 ft | 139 kts | 349° |
| 2026-05-04 08:47 | -33.96975 | 151.19351 | 61 ft | 138 kts | 351° |
| 2026-05-04 08:47 | -33.95908 | 151.19075 | 28 ft | 81 kts | 348° |
| 2026-05-04 08:47 | -33.95661 | 151.19012 | 25 ft | 41 kts | 347° |
| 2026-05-04 08:47 | -33.95411 | 151.18931 | 25 ft | 33 kts | 337° |
| 2026-05-04 08:48 | -33.95252 | 151.18809 | 27 ft | 0 kts | 320° |
| 2026-05-04 08:48 | -33.95226 | 151.18781 | 28 ft | 12 kts | 318° |
| 2026-05-04 08:49 | -33.95145 | 151.18684 | 30 ft | 18 kts | 318° |
| 2026-05-04 08:50 | -33.95168 | 151.18135 | 30 ft | 0 kts | 257° |
| 2026-05-04 08:51 | -33.95169 | 151.18129 | 30 ft | 4 kts | 257° |
| 2026-05-04 08:51 | -33.95181 | 151.18063 | 30 ft | 9 kts | 257° |
| 2026-05-04 08:51 | -33.95177 | 151.17981 | 30 ft | 11 kts | 299° |
| 2026-05-04 08:51 | -33.95091 | 151.17941 | 30 ft | 19 kts | 348° |
| 2026-05-04 08:52 | -33.94958 | 151.17907 | 30 ft | 20 kts | 348° |
| 2026-05-04 08:52 | -33.94821 | 151.17872 | 30 ft | 20 kts | 348° |
| 2026-05-04 08:52 | -33.94687 | 151.17836 | 30 ft | 16 kts | 348° |
| 2026-05-04 08:52 | -33.94636 | 151.17823 | 30 ft | 0 kts | 347° |
| 2026-05-04 08:54 | -33.94215 | 151.17699 | 29 ft | 24 kts | 346° |
| 2026-05-04 08:55 | -33.94051 | 151.17651 | 28 ft | 25 kts | 348° |
| 2026-05-04 08:55 | -33.93884 | 151.17607 | 29 ft | 24 kts | 348° |
| 2026-05-04 08:55 | -33.93719 | 151.17565 | 29 ft | 24 kts | 348° |
| 2026-05-04 08:55 | -33.93555 | 151.17522 | 29 ft | 23 kts | 347° |
| 2026-05-04 08:57 | -33.93014 | 151.17645 | 30 ft | 17 kts | 102° |